Time;durP1;ratioP1;P1;durP2;ratioP2;P2;SDS_P1;SDS_P2;PMS_P1;PMS_P2;Temp;Humidity;BMP_temperature;BMP_pressure;BME280_temperature;BME280_humidity;BME280_pressure;Samples;Min_cycle;Max_cycle;Signal;HPM_P1;HPM_P2
2020/12/20 00:02:10;;;;;;;26.10;11.43;;;9.10;99.90;;;;;;5052269;28;20033;-85
2020/12/20 00:04:36;;;;;;;22.33;11.27;;;9.10;99.90;;;;;;5045363;28;20067;-86
2020/12/20 00:07:01;;;;;;;23.00;10.57;;;9.20;99.90;;;;;;5048822;28;20548;-86
2020/12/20 00:09:27;;;;;;;17.40;10.68;;;9.20;99.90;;;;;;5065503;28;20462;-85
2020/12/20 00:11:53;;;;;;;26.30;10.40;;;9.30;99.90;;;;;;5047611;28;20033;-86
2020/12/20 00:14:29;;;;;;;21.15;9.52;;;9.40;99.90;;;;;;5049310;28;20025;-85
2020/12/20 00:17:06;;;;;;;17.70;10.20;;;9.40;99.90;;;;;;5066502;28;20028;-86
2020/12/20 00:19:32;;;;;;;16.10;9.60;;;9.40;99.90;;;;;;5067465;28;20040;-86
2020/12/20 00:22:06;;;;;;;22.10;10.07;;;9.40;99.90;;;;;;5063048;28;20066;-86
2020/12/20 00:24:33;;;;;;;21.50;10.75;;;9.50;99.90;;;;;;5062505;28;20401;-86
2020/12/20 00:26:59;;;;;;;15.35;9.75;;;9.50;99.90;;;;;;5060670;28;20025;-86
2020/12/20 00:29:27;;;;;;;14.63;9.63;;;9.50;99.90;;;;;;5054276;28;20033;-86
2020/12/20 00:31:53;;;;;;;19.73;9.90;;;9.50;99.90;;;;;;5053363;28;20053;-86
2020/12/20 00:34:19;;;;;;;23.23;10.90;;;9.50;99.90;;;;;;5052797;28;20529;-86
2020/12/20 00:36:47;;;;;;;27.75;11.05;;;9.50;99.90;;;;;;5052355;28;20477;-85
2020/12/20 00:39:15;;;;;;;20.88;10.57;;;9.50;99.90;;;;;;5049930;28;20529;-86
2020/12/20 00:41:41;;;;;;;17.45;10.20;;;9.50;99.90;;;;;;5057702;28;20029;-86
2020/12/20 00:44:07;;;;;;;18.20;10.15;;;9.40;99.90;;;;;;5056072;28;20056;-86
2020/12/20 00:46:37;;;;;;;19.33;10.15;;;9.50;99.90;;;;;;5051963;28;20036;-84
2020/12/20 00:49:05;;;;;;;18.27;9.90;;;9.50;99.90;;;;;;5049501;28;20022;-86
2020/12/20 00:51:32;;;;;;;15.82;9.75;;;9.40;99.90;;;;;;5062899;28;20532;-85
2020/12/20 00:53:59;;;;;;;17.70;9.48;;;9.40;99.90;;;;;;5059852;28;20111;-85
2020/12/20 00:56:25;;;;;;;22.38;10.10;;;9.30;99.90;;;;;;5055731;28;20028;-85
2020/12/20 00:58:51;;;;;;;19.75;10.25;;;9.30;99.90;;;;;;5054487;28;20032;-85
2020/12/20 01:01:17;;;;;;;22.27;10.80;;;9.20;99.90;;;;;;5061052;28;20047;-86
2020/12/20 01:03:43;;;;;;;21.60;10.82;;;9.10;99.90;;;;;;5054031;28;20031;-86
2020/12/20 01:06:15;;;;;;;22.23;11.23;;;9.10;99.90;;;;;;5056799;28;20035;-85
2020/12/20 01:08:41;;;;;;;19.05;10.68;;;9.00;99.90;;;;;;5050881;28;20391;-86
2020/12/20 01:11:07;;;;;;;24.67;11.25;;;9.00;99.90;;;;;;5052853;28;20028;-86
2020/12/20 01:13:33;;;;;;;19.23;10.43;;;9.00;99.90;;;;;;5049149;28;20025;-85
2020/12/20 01:15:58;;;;;;;23.08;10.50;;;8.90;99.90;;;;;;5052054;28;20035;-86
2020/12/20 01:18:24;;;;;;;19.05;10.27;;;8.80;99.90;;;;;;5055845;28;20133;-85
2020/12/20 01:20:49;;;;;;;22.40;10.75;;;8.80;99.90;;;;;;5052357;28;20029;-85
2020/12/20 01:23:15;;;;;;;23.60;10.68;;;8.70;99.90;;;;;;5052995;28;20039;-85
2020/12/20 01:25:40;;;;;;;20.23;10.63;;;8.60;99.90;;;;;;5052000;28;20448;-85
2020/12/20 01:28:06;;;;;;;22.00;10.60;;;8.60;99.90;;;;;;5056428;28;20032;-85
2020/12/20 01:30:32;;;;;;;20.83;11.25;;;8.60;99.90;;;;;;5049629;28;20036;-86
2020/12/20 01:32:57;;;;;;;18.98;10.73;;;8.60;99.90;;;;;;5054644;28;20136;-86
2020/12/20 01:35:23;;;;;;;21.92;11.68;;;8.60;99.90;;;;;;5050459;28;20462;-85
2020/12/20 01:37:48;;;;;;;21.67;10.63;;;8.50;99.90;;;;;;5056253;28;20021;-85
2020/12/20 01:40:14;;;;;;;27.92;10.90;;;8.60;99.90;;;;;;5060593;28;20130;-86
2020/12/20 01:42:40;;;;;;;20.50;10.80;;;8.60;99.90;;;;;;5056312;28;20021;-86
2020/12/20 01:45:06;;;;;;;17.63;10.80;;;8.50;99.90;;;;;;5055001;28;20397;-85
2020/12/20 01:47:32;;;;;;;18.70;11.25;;;8.50;99.90;;;;;;5049745;28;20025;-86
2020/12/20 01:50:00;;;;;;;18.83;10.55;;;8.50;99.90;;;;;;5049871;28;20036;-84
2020/12/20 01:52:26;;;;;;;18.90;11.32;;;8.50;99.90;;;;;;5066657;28;20037;-85
2020/12/20 01:54:56;;;;;;;20.65;11.48;;;8.50;99.90;;;;;;5063333;28;20097;-86
2020/12/20 01:57:22;;;;;;;24.65;12.32;;;8.50;99.90;;;;;;5051417;28;20056;-85
2020/12/20 01:59:48;;;;;;;18.20;11.00;;;8.50;99.90;;;;;;5051431;28;20104;-85
2020/12/20 02:02:14;;;;;;;22.92;11.68;;;8.50;99.90;;;;;;5054134;28;20075;-84
2020/12/20 02:04:41;;;;;;;19.45;11.82;;;8.50;99.90;;;;;;5065211;28;20029;-85
2020/12/20 02:07:07;;;;;;;15.38;9.90;;;8.60;99.90;;;;;;5057103;28;20028;-85
2020/12/20 02:09:33;;;;;;;22.38;11.65;;;8.50;99.90;;;;;;5055980;28;20016;-85
2020/12/20 02:12:07;;;;;;;25.02;12.48;;;8.50;99.90;;;;;;5056554;28;20052;-85
2020/12/20 02:14:32;;;;;;;21.92;11.15;;;8.50;99.90;;;;;;5047841;28;20036;-84
2020/12/20 02:16:59;;;;;;;25.40;10.57;;;8.40;99.90;;;;;;5051559;28;20040;-84
2020/12/20 02:19:25;;;;;;;18.98;10.88;;;8.40;99.90;;;;;;5048779;28;20017;-84
2020/12/20 02:21:51;;;;;;;21.95;11.65;;;8.40;99.90;;;;;;5056449;28;20035;-84
2020/12/20 02:24:16;;;;;;;18.10;10.73;;;8.30;99.90;;;;;;5044354;28;20029;-85
2020/12/20 02:26:42;;;;;;;20.50;12.07;;;8.20;99.90;;;;;;5051783;28;20079;-85
2020/12/20 02:29:08;;;;;;;16.98;10.25;;;8.30;99.90;;;;;;5048806;28;20027;-86
2020/12/20 02:31:34;;;;;;;18.15;11.32;;;8.30;99.90;;;;;;5048635;28;20044;-86
2020/12/20 02:34:00;;;;;;;20.70;11.35;;;8.20;99.90;;;;;;5059385;28;20024;-85
2020/12/20 02:36:26;;;;;;;22.17;12.02;;;8.20;99.90;;;;;;5055020;28;20429;-86
2020/12/20 02:38:52;;;;;;;22.27;12.05;;;8.10;99.90;;;;;;5048505;28;20052;-86
2020/12/20 02:41:18;;;;;;;20.88;11.40;;;8.10;99.90;;;;;;5057569;28;20029;-85
2020/12/20 02:43:44;;;;;;;21.65;12.52;;;8.10;99.90;;;;;;5053068;28;20115;-85
2020/12/20 02:46:10;;;;;;;24.67;10.70;;;8.10;99.90;;;;;;5051045;28;20028;-86
2020/12/20 02:48:35;;;;;;;18.05;11.20;;;8.10;99.90;;;;;;5049777;28;20022;-86
2020/12/20 02:51:01;;;;;;;20.13;11.10;;;8.10;99.90;;;;;;5057752;28;20052;-83
2020/12/20 02:53:27;;;;;;;21.02;12.05;;;8.10;99.90;;;;;;5048619;28;20386;-82
2020/12/20 02:55:52;;;;;;;28.17;10.98;;;8.20;99.90;;;;;;5051041;28;20028;-86
2020/12/20 02:58:21;;;;;;;20.23;11.63;;;8.10;99.90;;;;;;5059269;28;20039;-86
2020/12/20 03:00:46;;;;;;;17.67;11.85;;;8.10;99.90;;;;;;5046805;28;20024;-86
2020/12/20 03:03:12;;;;;;;20.05;11.48;;;8.10;99.90;;;;;;5048400;28;20021;-85
2020/12/20 03:05:37;;;;;;;17.48;11.68;;;8.10;99.90;;;;;;5057763;28;20084;-86
2020/12/20 03:08:04;;;;;;;19.52;12.30;;;8.10;99.90;;;;;;5048583;28;20033;-86
2020/12/20 03:10:29;;;;;;;29.88;11.40;;;8.10;99.90;;;;;;5048490;28;20036;-83
2020/12/20 03:12:55;;;;;;;21.08;11.20;;;8.10;99.90;;;;;;5048247;28;20033;-83
2020/12/20 03:15:21;;;;;;;19.75;11.45;;;8.10;99.90;;;;;;5045296;28;20017;-84
2020/12/20 03:17:46;;;;;;;24.35;12.38;;;8.00;99.90;;;;;;5052234;28;20028;-85
2020/12/20 03:20:12;;;;;;;20.77;12.43;;;8.00;99.90;;;;;;5048847;28;20029;-85
2020/12/20 03:22:37;;;;;;;20.55;12.18;;;8.10;99.90;;;;;;5048406;28;20025;-85
2020/12/20 03:25:04;;;;;;;26.30;12.57;;;8.10;99.90;;;;;;5048349;28;20021;-85
2020/12/20 03:27:30;;;;;;;26.25;11.65;;;8.00;99.90;;;;;;5051020;28;20116;-85
2020/12/20 03:29:55;;;;;;;21.35;12.63;;;8.00;99.90;;;;;;5051782;28;20171;-85
2020/12/20 03:32:21;;;;;;;18.33;11.82;;;8.10;99.90;;;;;;5051469;28;20406;-85
2020/12/20 03:34:46;;;;;;;21.08;12.43;;;8.00;99.90;;;;;;5056565;28;20078;-85
2020/12/20 03:37:12;;;;;;;20.90;11.82;;;8.00;99.90;;;;;;5056332;28;20029;-85
2020/12/20 03:39:38;;;;;;;25.00;12.48;;;8.00;99.90;;;;;;5048660;28;20037;-86
2020/12/20 03:42:04;;;;;;;27.08;11.68;;;8.10;99.90;;;;;;5049170;28;20478;-85
2020/12/20 03:44:29;;;;;;;20.65;12.27;;;8.00;99.90;;;;;;5046081;28;20375;-85
2020/12/20 03:46:55;;;;;;;19.30;11.55;;;8.00;99.90;;;;;;5049078;28;20033;-85
2020/12/20 03:49:20;;;;;;;20.00;11.43;;;8.00;99.90;;;;;;5066393;28;20021;-85
2020/12/20 03:51:46;;;;;;;28.40;12.27;;;8.00;99.90;;;;;;5050532;28;20032;-85
2020/12/20 03:54:11;;;;;;;22.38;11.43;;;8.00;99.90;;;;;;5050569;28;20029;-85
2020/12/20 03:56:37;;;;;;;21.48;11.35;;;8.00;99.90;;;;;;5050686;28;20059;-85
2020/12/20 03:59:03;;;;;;;16.85;10.25;;;8.00;99.90;;;;;;5053153;28;20032;-85
2020/12/20 04:01:29;;;;;;;23.52;11.45;;;8.10;99.90;;;;;;5051729;28;20024;-86
2020/12/20 04:03:54;;;;;;;19.65;11.48;;;8.00;99.90;;;;;;5048851;28;20033;-86
2020/12/20 04:06:20;;;;;;;25.77;11.68;;;8.00;99.90;;;;;;5056240;28;20032;-85
2020/12/20 04:08:46;;;;;;;19.70;11.73;;;8.00;99.90;;;;;;5056964;28;20037;-86
2020/12/20 04:11:12;;;;;;;21.00;11.10;;;8.00;99.90;;;;;;5048896;28;20045;-86
2020/12/20 04:13:37;;;;;;;23.63;11.68;;;8.00;99.90;;;;;;5047330;28;22050;-85
2020/12/20 04:16:08;;;;;;;20.65;11.55;;;8.00;99.90;;;;;;5050180;28;20035;-87
2020/12/20 04:18:34;;;;;;;24.23;13.10;;;8.00;99.90;;;;;;5058803;28;20113;-84
2020/12/20 04:21:00;;;;;;;22.42;11.45;;;8.00;99.90;;;;;;5050993;28;20024;-85
2020/12/20 04:23:26;;;;;;;21.63;12.48;;;8.00;99.90;;;;;;5052989;28;20115;-86
2020/12/20 04:25:52;;;;;;;28.25;12.40;;;8.00;99.90;;;;;;5045662;28;20060;-85
2020/12/20 04:28:17;;;;;;;23.88;12.63;;;8.00;99.90;;;;;;5061134;28;20036;-85
2020/12/20 04:30:43;;;;;;;16.52;11.15;;;8.00;99.90;;;;;;5046354;28;20033;-85
2020/12/20 04:33:09;;;;;;;26.90;12.45;;;8.00;99.90;;;;;;5059217;28;20030;-85
2020/12/20 04:35:34;;;;;;;22.00;12.10;;;7.90;99.90;;;;;;5053473;28;20469;-85
2020/12/20 04:38:00;;;;;;;21.90;12.52;;;7.90;99.90;;;;;;5057253;28;20044;-85
2020/12/20 04:40:26;;;;;;;26.83;12.45;;;7.90;99.90;;;;;;5051550;28;20031;-85
2020/12/20 04:43:08;;;;;;;21.42;12.15;;;7.90;99.90;;;;;;5059369;28;20036;-85
2020/12/20 04:45:35;;;;;;;22.48;12.40;;;7.90;99.90;;;;;;5053352;28;20021;-85
2020/12/20 04:48:02;;;;;;;25.52;12.48;;;7.90;99.90;;;;;;5070877;28;20028;-86
2020/12/20 04:50:32;;;;;;;20.27;12.45;;;7.80;99.90;;;;;;5062827;28;20024;-86
2020/12/20 04:52:59;;;;;;;26.27;12.33;;;7.80;99.90;;;;;;5091472;28;20115;-85
2020/12/20 04:55:28;;;;;;;21.30;12.13;;;7.80;99.90;;;;;;5058441;28;20036;-86
2020/12/20 04:57:55;;;;;;;21.58;12.48;;;7.80;99.90;;;;;;5062942;28;20041;-85
2020/12/20 05:00:21;;;;;;;18.52;12.40;;;7.80;99.90;;;;;;5057412;28;20029;-85
2020/12/20 05:02:47;;;;;;;22.88;12.10;;;7.80;99.90;;;;;;5056620;28;20029;-86
2020/12/20 05:05:13;;;;;;;21.60;12.98;;;7.80;99.90;;;;;;5062030;28;20114;-85
2020/12/20 05:07:38;;;;;;;25.15;12.48;;;7.70;99.90;;;;;;5068652;28;20043;-86
2020/12/20 05:10:05;;;;;;;25.45;12.40;;;7.70;99.90;;;;;;5062023;28;20039;-86
2020/12/20 05:12:35;;;;;;;23.52;12.73;;;7.70;99.90;;;;;;5057048;28;20036;-86
2020/12/20 05:15:21;;;;;;;21.27;12.90;;;7.70;99.90;;;;;;5062694;28;21460;-85
2020/12/20 05:17:47;;;;;;;22.20;12.40;;;7.70;99.90;;;;;;5061228;28;20025;-86
2020/12/20 05:20:33;;;;;;;27.67;12.18;;;7.60;99.90;;;;;;5061006;28;20104;-84
2020/12/20 05:22:59;;;;;;;21.15;12.32;;;7.60;99.90;;;;;;5063261;28;20032;-84
2020/12/20 05:25:24;;;;;;;30.10;13.40;;;7.60;99.90;;;;;;5074283;28;20113;-86
2020/12/20 05:27:50;;;;;;;22.55;12.00;;;7.50;99.90;;;;;;5070457;28;20036;-87
2020/12/20 05:30:17;;;;;;;25.05;11.75;;;7.60;99.90;;;;;;5059942;28;20028;-84
2020/12/20 05:32:45;;;;;;;20.20;11.13;;;7.60;99.90;;;;;;5067594;28;20202;-84
2020/12/20 05:35:12;;;;;;;20.65;11.82;;;7.60;99.90;;;;;;5070646;28;20016;-85
2020/12/20 05:37:39;;;;;;;18.98;12.57;;;7.60;99.90;;;;;;5063224;28;20112;-85
2020/12/20 05:40:15;;;;;;;21.40;12.40;;;7.60;99.90;;;;;;5060841;28;20032;-85
2020/12/20 05:42:53;;;;;;;21.13;10.70;;;7.60;99.90;;;;;;5060924;28;20021;-86
2020/12/20 05:45:19;;;;;;;19.35;10.98;;;7.60;99.90;;;;;;5065633;28;20113;-86
2020/12/20 05:47:45;;;;;;;18.02;11.00;;;7.60;99.90;;;;;;5073978;28;20034;-87
2020/12/20 05:50:12;;;;;;;20.10;12.30;;;7.60;99.90;;;;;;5077481;28;20028;-84
2020/12/20 05:52:39;;;;;;;26.63;12.35;;;7.60;99.90;;;;;;5071449;28;20037;-85
2020/12/20 05:55:14;;;;;;;24.60;11.63;;;7.60;99.90;;;;;;5068343;28;20017;-85
2020/12/20 05:57:40;;;;;;;21.20;12.48;;;7.60;99.90;;;;;;5072495;28;20015;-86
2020/12/20 06:00:07;;;;;;;17.13;11.15;;;7.60;99.90;;;;;;5086579;28;20326;-83
2020/12/20 06:02:33;;;;;;;18.85;11.00;;;7.60;99.90;;;;;;5095995;28;20021;-86
2020/12/20 06:05:02;;;;;;;22.35;11.32;;;7.60;99.90;;;;;;5085924;28;20039;-86
2020/12/20 06:07:28;;;;;;;26.50;11.85;;;7.60;99.90;;;;;;5078543;28;20008;-85
2020/12/20 06:09:58;;;;;;;21.75;11.77;;;7.60;99.90;;;;;;5071053;28;20064;-86
2020/12/20 06:12:29;;;;;;;19.98;11.02;;;7.60;99.90;;;;;;5061347;28;20036;-85
2020/12/20 06:14:58;;;;;;;20.85;11.35;;;7.60;99.90;;;;;;5055139;28;20031;-86
2020/12/20 06:17:25;;;;;;;22.48;11.65;;;7.60;99.90;;;;;;5053348;28;20025;-86
2020/12/20 06:19:58;;;;;;;21.75;11.63;;;7.60;99.90;;;;;;5062127;28;20021;-85
2020/12/20 06:22:32;;;;;;;19.83;11.80;;;7.60;99.90;;;;;;5072303;28;20574;-85
2020/12/20 06:25:06;;;;;;;22.25;11.02;;;7.60;99.90;;;;;;5056129;28;20029;-85
2020/12/20 06:27:33;;;;;;;20.58;11.27;;;7.70;99.90;;;;;;5060322;28;20031;-85
2020/12/20 06:30:06;;;;;;;24.20;12.55;;;7.70;99.90;;;;;;5047576;28;20116;-85
2020/12/20 06:32:39;;;;;;;22.00;11.55;;;7.60;99.90;;;;;;5060072;28;20052;-86
2020/12/20 06:35:22;;;;;;;24.33;10.88;;;7.70;99.90;;;;;;5054575;28;20031;-85
2020/12/20 06:37:48;;;;;;;20.27;12.23;;;7.70;99.90;;;;;;5057148;28;20024;-85
2020/12/20 06:40:20;;;;;;;22.17;11.40;;;7.70;99.90;;;;;;5064710;28;20474;-86
2020/12/20 06:42:46;;;;;;;25.35;13.15;;;7.70;99.90;;;;;;5069390;28;20110;-85
2020/12/20 06:45:20;;;;;;;22.73;10.70;;;7.70;99.90;;;;;;5063390;28;20080;-86
2020/12/20 06:47:51;;;;;;;16.08;10.43;;;7.70;99.90;;;;;;5068662;28;20024;-86
2020/12/20 06:50:35;;;;;;;22.33;12.93;;;7.60;99.90;;;;;;5070269;28;20060;-86
2020/12/20 06:53:01;;;;;;;25.50;11.23;;;7.70;99.90;;;;;;5056924;28;20063;-85
2020/12/20 06:55:26;;;;;;;20.45;11.80;;;7.60;99.90;;;;;;5066235;28;20056;-85
2020/12/20 06:58:04;;;;;;;27.05;11.57;;;7.60;99.90;;;;;;5056388;28;20033;-85
2020/12/20 07:00:41;;;;;;;23.15;12.35;;;7.60;99.90;;;;;;5071777;28;20027;-86
2020/12/20 07:03:08;;;;;;;22.67;11.75;;;7.60;99.90;;;;;;5043652;28;20033;-85
2020/12/20 07:05:43;;;;;;;20.83;12.70;;;7.60;99.90;;;;;;5056184;28;20104;-85
2020/12/20 07:08:29;;;;;;;18.27;11.43;;;7.60;99.90;;;;;;5062904;28;20028;-85
2020/12/20 07:11:05;;;;;;;22.40;11.82;;;7.60;99.90;;;;;;5070232;28;20033;-85
2020/12/20 07:13:36;;;;;;;23.95;10.77;;;7.60;99.90;;;;;;5077470;28;21733;-86
2020/12/20 07:16:28;;;;;;;;;;;7.50;99.90;;;;;;5051249;28;20024;-86
2020/12/20 07:18:58;;;;;;;20.00;11.77;;;7.60;99.90;;;;;;4972768;28;20430;-85
2020/12/20 07:21:24;;;;;;;18.77;11.55;;;7.50;99.90;;;;;;4988713;28;20038;-86
2020/12/20 07:24:07;;;;;;;21.63;12.02;;;7.60;99.90;;;;;;4988468;28;20034;-86
2020/12/20 07:26:33;;;;;;;21.52;12.57;;;7.50;99.90;;;;;;4996769;28;20049;-84
2020/12/20 07:29:02;;;;;;;17.40;11.43;;;7.60;99.90;;;;;;4973905;28;20034;-84
2020/12/20 07:31:29;;;;;;;18.85;11.55;;;7.60;99.90;;;;;;4994169;28;20059;-86
2020/12/20 07:33:55;;;;;;;22.50;12.43;;;7.50;99.90;;;;;;4985269;28;20030;-85
2020/12/20 07:36:21;;;;;;;19.40;12.13;;;7.50;99.90;;;;;;4999943;28;20042;-85
2020/12/20 07:38:48;;;;;;;21.50;12.57;;;7.50;99.90;;;;;;4981736;28;20038;-85
2020/12/20 07:41:16;;;;;;;22.20;11.85;;;7.50;99.90;;;;;;4999179;28;20025;-85
2020/12/20 07:43:43;;;;;;;22.17;11.73;;;7.50;99.90;;;;;;4980560;28;20154;-85
2020/12/20 07:46:10;;;;;;;20.35;12.52;;;7.50;99.90;;;;;;4995578;28;20108;-85
2020/12/20 07:48:37;;;;;;;23.60;12.32;;;7.40;99.90;;;;;;4980954;28;20039;-85
2020/12/20 07:51:24;;;;;;;21.33;12.10;;;7.40;99.90;;;;;;4985887;28;20198;-85
2020/12/20 07:53:54;;;;;;;18.55;11.00;;;7.50;99.90;;;;;;4973681;28;20030;-86
2020/12/20 07:56:21;;;;;;;21.52;12.25;;;7.50;99.90;;;;;;5046293;28;20036;-85
2020/12/20 07:58:47;;;;;;;23.00;11.52;;;7.50;99.90;;;;;;5091016;28;20099;-85
2020/12/20 08:01:13;;;;;;;20.15;12.35;;;7.50;99.90;;;;;;5067696;28;20064;-84
2020/12/20 08:03:38;;;;;;;25.40;13.25;;;7.50;99.90;;;;;;5058924;28;20017;-85
2020/12/20 08:06:11;;;;;;;21.80;11.85;;;7.50;99.90;;;;;;5058194;28;20404;-84
2020/12/20 08:08:38;;;;;;;21.17;12.45;;;7.40;99.90;;;;;;5073013;28;20047;-84
2020/12/20 08:11:26;;;;;;;20.55;11.90;;;7.40;99.90;;;;;;5062200;28;20060;-86
2020/12/20 08:14:03;;;;;;;31.48;12.73;;;7.40;99.90;;;;;;5063593;28;20024;-86
2020/12/20 08:16:31;;;;;;;16.55;10.95;;;7.40;99.90;;;;;;5054545;28;20430;-84
2020/12/20 08:19:28;;;;;;;24.52;12.57;;;7.50;99.90;;;;;;5057695;28;20025;-83
2020/12/20 08:22:05;;;;;;;20.33;12.15;;;7.50;99.90;;;;;;5079748;28;20032;-85
2020/12/20 08:24:36;;;;;;;18.80;12.15;;;7.50;99.90;;;;;;5050060;28;20025;-85
2020/12/20 08:27:11;;;;;;;;;;;7.60;99.90;;;;;;5056523;28;20655;-85
2020/12/20 08:29:37;;;;;;;24.60;11.57;;;7.60;99.90;;;;;;5050846;28;19951;-85
2020/12/20 08:32:17;;;;;;;17.13;11.60;;;7.60;99.90;;;;;;5054835;28;20378;-86
2020/12/20 08:34:43;;;;;;;30.42;12.48;;;7.60;99.90;;;;;;5051610;28;20033;-85
2020/12/20 08:37:11;;;;;;;22.88;12.88;;;7.60;99.90;;;;;;5059359;28;20036;-85
2020/12/20 08:39:37;;;;;;;24.48;12.25;;;7.60;99.90;;;;;;5052682;28;20466;-85
2020/12/20 08:42:09;;;;;;;24.63;12.60;;;7.60;99.90;;;;;;5053209;28;20035;-85
2020/12/20 08:44:35;;;;;;;20.85;11.95;;;7.60;99.90;;;;;;5050464;28;20087;-85
2020/12/20 08:47:05;;;;;;;19.70;12.32;;;7.60;99.90;;;;;;5049222;28;20025;-85
2020/12/20 08:49:31;;;;;;;24.40;12.48;;;7.60;99.90;;;;;;5056524;28;20027;-85
2020/12/20 08:52:06;;;;;;;19.88;12.70;;;7.70;99.90;;;;;;5040862;28;20137;-84
2020/12/20 08:54:31;;;;;;;18.08;11.73;;;7.70;99.90;;;;;;5057232;28;20396;-86
2020/12/20 08:57:00;;;;;;;33.15;13.48;;;7.70;99.90;;;;;;5055803;28;20120;-87
2020/12/20 08:59:37;;;;;;;20.67;12.65;;;7.70;99.90;;;;;;5060617;28;20131;-86
2020/12/20 09:02:04;;;;;;;30.17;11.68;;;7.80;99.90;;;;;;5052483;28;20041;-85
2020/12/20 09:04:32;;;;;;;20.10;12.18;;;7.80;99.90;;;;;;5062475;28;20025;-86
2020/12/20 09:07:02;;;;;;;23.60;13.68;;;7.80;99.90;;;;;;5051323;28;20078;-84
2020/12/20 09:09:28;;;;;;;21.88;12.63;;;7.80;99.90;;;;;;5049980;28;20021;-84
2020/12/20 09:12:08;;;;;;;22.42;12.50;;;7.80;99.90;;;;;;5055655;28;20106;-85
2020/12/20 09:14:33;;;;;;;20.00;12.02;;;7.80;99.90;;;;;;5051453;28;20075;-84
2020/12/20 09:16:59;;;;;;;25.42;12.48;;;7.80;99.90;;;;;;5047415;28;20462;-84
2020/12/20 09:19:24;;;;;;;20.08;12.13;;;7.80;99.90;;;;;;5058707;28;20040;-85
2020/12/20 09:21:50;;;;;;;24.58;12.73;;;7.80;99.90;;;;;;5052643;28;20116;-83
2020/12/20 09:24:18;;;;;;;21.63;12.35;;;7.90;99.90;;;;;;5053041;28;20378;-83
2020/12/20 09:26:58;;;;;;;23.45;13.23;;;7.90;99.90;;;;;;5053301;28;20473;-84
2020/12/20 09:29:24;;;;;;;19.63;12.07;;;7.90;99.90;;;;;;5056255;28;20029;-84
2020/12/20 09:31:52;;;;;;;23.25;12.80;;;7.90;99.90;;;;;;5052751;28;20063;-83
2020/12/20 09:34:18;;;;;;;18.67;12.23;;;7.90;99.90;;;;;;5055195;28;20532;-84
2020/12/20 09:36:44;;;;;;;25.90;12.50;;;8.00;99.90;;;;;;5056118;28;20478;-84
2020/12/20 09:39:12;;;;;;;22.00;12.32;;;8.00;99.90;;;;;;5050165;28;20078;-83
2020/12/20 09:41:37;;;;;;;20.90;12.02;;;8.10;99.90;;;;;;5052583;28;20029;-84
2020/12/20 09:44:03;;;;;;;19.73;12.63;;;8.00;99.90;;;;;;5054599;28;20520;-84
2020/12/20 09:46:32;;;;;;;20.98;13.23;;;8.10;99.90;;;;;;5064731;28;20052;-84
2020/12/20 09:48:59;;;;;;;19.90;11.82;;;8.10;99.90;;;;;;5057885;28;20042;-85
2020/12/20 09:51:25;;;;;;;21.73;12.20;;;8.20;99.90;;;;;;5050673;28;20043;-85
2020/12/20 09:53:52;;;;;;;22.23;12.85;;;8.10;99.90;;;;;;5058556;28;20032;-84
2020/12/20 09:56:18;;;;;;;19.25;12.73;;;8.20;99.90;;;;;;5049412;28;20079;-86
2020/12/20 09:58:48;;;;;;;26.23;13.90;;;8.20;99.90;;;;;;5050850;28;20071;-85
2020/12/20 10:01:21;;;;;;;24.95;13.15;;;8.20;99.90;;;;;;5052798;28;20050;-86
2020/12/20 10:03:47;;;;;;;23.83;13.27;;;8.20;99.90;;;;;;5044013;28;20031;-86
2020/12/20 10:06:17;;;;;;;26.30;13.45;;;8.20;99.90;;;;;;5050063;28;20037;-86
2020/12/20 10:08:43;;;;;;;25.67;13.50;;;8.30;99.90;;;;;;5050039;28;20029;-86
2020/12/20 10:11:09;;;;;;;23.58;12.95;;;8.30;99.90;;;;;;5053634;28;20037;-84
2020/12/20 10:13:34;;;;;;;24.88;14.07;;;8.40;99.90;;;;;;5050879;28;20036;-85
2020/12/20 10:16:00;;;;;;;22.83;13.05;;;8.40;99.90;;;;;;5047592;28;20174;-84
2020/12/20 10:18:25;;;;;;;24.90;12.60;;;8.40;99.90;;;;;;5051731;28;20079;-85
2020/12/20 10:20:51;;;;;;;22.58;12.90;;;8.50;99.90;;;;;;5050090;28;20021;-85
2020/12/20 10:23:17;;;;;;;26.15;13.52;;;8.60;99.90;;;;;;5051829;28;20020;-85
2020/12/20 10:25:42;;;;;;;21.25;13.35;;;8.60;99.90;;;;;;5054206;28;20052;-85
2020/12/20 10:28:09;;;;;;;27.05;14.23;;;8.60;99.90;;;;;;5060460;28;20370;-85
2020/12/20 10:30:36;;;;;;;21.15;13.07;;;8.60;99.90;;;;;;5060323;28;20052;-85
2020/12/20 10:33:01;;;;;;;25.83;12.85;;;8.60;99.90;;;;;;5054786;28;20072;-85
2020/12/20 10:35:27;;;;;;;21.52;13.07;;;8.70;99.90;;;;;;5067060;28;20023;-84
2020/12/20 10:37:57;;;;;;;22.70;13.13;;;8.80;99.90;;;;;;5056367;28;20043;-85
2020/12/20 10:40:24;;;;;;;22.33;13.07;;;8.90;99.90;;;;;;5081143;28;20047;-85
2020/12/20 10:42:50;;;;;;;20.25;13.20;;;8.90;99.90;;;;;;5069458;28;20099;-84
2020/12/20 10:45:16;;;;;;;22.42;14.02;;;9.00;99.90;;;;;;5056694;28;20093;-85
2020/12/20 10:47:42;;;;;;;22.08;13.13;;;9.00;99.90;;;;;;5064812;28;20424;-84
2020/12/20 10:50:09;;;;;;;25.35;12.52;;;9.00;99.90;;;;;;5062153;28;20024;-85
2020/12/20 10:52:34;;;;;;;23.65;13.68;;;9.10;99.90;;;;;;5054441;28;20119;-84
2020/12/20 10:55:00;;;;;;;31.95;12.40;;;9.10;99.90;;;;;;5056259;28;20159;-84
2020/12/20 10:57:27;;;;;;;19.98;12.43;;;9.20;99.90;;;;;;5050571;28;20059;-84
2020/12/20 10:59:53;;;;;;;27.58;13.25;;;9.10;99.90;;;;;;5074644;28;20514;-84
2020/12/20 11:02:19;;;;;;;25.30;12.88;;;9.20;99.90;;;;;;5075560;28;20028;-85
2020/12/20 11:04:45;;;;;;;21.98;13.05;;;9.20;99.90;;;;;;5058365;28;20024;-85
2020/12/20 11:07:11;;;;;;;25.13;12.82;;;9.30;99.90;;;;;;5053704;28;20039;-85
2020/12/20 11:09:36;;;;;;;24.58;12.82;;;9.40;99.90;;;;;;5074661;28;20024;-83
2020/12/20 11:12:04;;;;;;;25.77;13.13;;;9.40;99.90;;;;;;5060396;28;20448;-84
2020/12/20 11:14:32;;;;;;;21.15;12.82;;;9.40;99.90;;;;;;5058583;28;20116;-84
2020/12/20 11:16:58;;;;;;;26.02;12.88;;;9.40;99.90;;;;;;5058884;28;20032;-84
2020/12/20 11:19:24;;;;;;;19.88;13.00;;;9.40;99.90;;;;;;5051738;28;20031;-83
2020/12/20 11:21:51;;;;;;;21.63;13.38;;;9.50;99.90;;;;;;5059952;28;20480;-85
2020/12/20 11:24:18;;;;;;;22.30;13.48;;;9.50;99.90;;;;;;5066788;28;20425;-86
2020/12/20 11:26:44;;;;;;;24.85;11.85;;;9.50;99.90;;;;;;5060698;28;20119;-85
2020/12/20 11:29:10;;;;;;;26.17;13.77;;;9.50;99.90;;;;;;5059014;28;20016;-86
2020/12/20 11:31:36;;;;;;;23.95;12.90;;;9.50;99.90;;;;;;5067698;28;20052;-85
2020/12/20 11:34:02;;;;;;;22.33;12.05;;;9.60;99.90;;;;;;5048504;28;20048;-85
2020/12/20 11:36:28;;;;;;;18.52;12.25;;;9.70;99.90;;;;;;5049992;28;20029;-85
2020/12/20 11:38:53;;;;;;;28.58;13.50;;;9.70;99.90;;;;;;5054458;28;20077;-84
2020/12/20 11:41:20;;;;;;;22.58;13.05;;;9.80;99.90;;;;;;5044095;28;20025;-85
2020/12/20 11:43:46;;;;;;;25.42;13.70;;;9.80;99.90;;;;;;5047506;28;20029;-85
2020/12/20 11:46:12;;;;;;;28.30;12.85;;;9.80;99.90;;;;;;5044588;28;20036;-85
2020/12/20 11:48:37;;;;;;;23.92;13.60;;;9.80;99.90;;;;;;5047619;28;20025;-84
2020/12/20 11:51:04;;;;;;;26.48;12.38;;;10.00;99.90;;;;;;5048868;28;20045;-84
2020/12/20 11:53:29;;;;;;;30.27;12.95;;;10.20;99.90;;;;;;5039566;28;20059;-84
2020/12/20 11:55:55;;;;;;;19.77;12.52;;;10.20;99.90;;;;;;5046264;28;20024;-84
2020/12/20 11:58:21;;;;;;;24.25;12.80;;;10.30;99.90;;;;;;5049977;28;20048;-85
2020/12/20 12:00:48;;;;;;;18.50;11.63;;;10.70;99.90;;;;;;5046813;28;20029;-86
2020/12/20 12:03:15;;;;;;;18.85;10.98;;;11.00;99.90;;;;;;5063707;28;20025;-86
2020/12/20 12:05:42;;;;;;;19.02;11.63;;;11.30;99.90;;;;;;5049389;28;20100;-85
2020/12/20 12:08:08;;;;;;;22.77;12.02;;;11.40;99.90;;;;;;5047349;28;20021;-85
2020/12/20 12:10:35;;;;;;;22.08;11.82;;;11.50;99.90;;;;;;5051129;28;20033;-85
2020/12/20 12:13:02;;;;;;;19.88;11.15;;;11.30;99.90;;;;;;5052865;28;20071;-84
2020/12/20 12:15:29;;;;;;;19.70;11.00;;;11.30;99.90;;;;;;5056567;28;20029;-85
2020/12/20 12:17:54;;;;;;;30.73;12.30;;;11.30;99.90;;;;;;5053523;28;20105;-85
2020/12/20 12:20:20;;;;;;;19.15;11.63;;;11.20;99.90;;;;;;5053308;28;20431;-86
2020/12/20 12:22:47;;;;;;;17.15;11.52;;;11.10;99.90;;;;;;5057420;28;20043;-86
2020/12/20 12:25:13;;;;;;;16.55;10.13;;;11.10;99.90;;;;;;5048257;28;20029;-86
2020/12/20 12:27:39;;;;;;;16.52;10.57;;;11.00;99.90;;;;;;5047476;28;20079;-85
2020/12/20 12:30:04;;;;;;;22.13;11.52;;;11.00;99.90;;;;;;5049451;28;20033;-83
2020/12/20 12:32:30;;;;;;;25.70;12.48;;;10.80;99.90;;;;;;5054981;28;20044;-82
2020/12/20 12:34:56;;;;;;;19.55;10.95;;;10.80;99.90;;;;;;5026634;28;20021;-83
2020/12/20 12:37:22;;;;;;;23.85;12.77;;;10.70;99.90;;;;;;5050898;28;20209;-84
2020/12/20 12:39:48;;;;;;;19.15;11.82;;;10.70;99.90;;;;;;5035753;28;20029;-85
2020/12/20 12:42:14;;;;;;;21.73;11.98;;;10.70;99.90;;;;;;5035099;28;20034;-85